createdAt,value
2023-05-24T10:58:58.174Z,14.02
2023-05-24T11:01:30.033Z,14.97
2023-05-24T11:04:11.433Z,15.48
2023-05-24T11:06:50.342Z,15.86
2023-05-24T11:09:17.765Z,16.11
2023-05-24T11:11:46.168Z,16.46
2023-05-24T11:14:13.968Z,16.58
2023-05-24T11:16:41.291Z,16.77
2023-05-24T11:19:29.171Z,16.66
2023-05-24T11:21:59.244Z,16.63
2023-05-24T11:24:27.230Z,16.48
2023-05-24T11:26:54.341Z,16.60
2023-05-24T11:29:24.654Z,16.86
2023-05-24T11:31:58.174Z,16.93
2023-05-24T11:34:25.505Z,16.84
2023-05-24T11:36:53.296Z,16.67
2023-05-24T11:39:20.114Z,16.86
2023-05-24T11:41:47.790Z,16.91
2023-05-24T11:44:17.830Z,16.88
2023-05-24T11:46:44.654Z,16.80
2023-05-24T11:49:16.252Z,17.00
2023-05-24T11:51:43.914Z,17.13
2023-05-24T11:54:12.008Z,17.12
2023-05-24T11:56:39.018Z,17.25
2023-05-24T11:59:15.800Z,17.21
2023-05-24T12:01:43.216Z,17.37
2023-05-24T12:04:11.128Z,17.29
2023-05-24T12:06:39.407Z,17.35
2023-05-24T12:09:11.058Z,17.15
2023-05-24T12:11:43.087Z,17.12
2023-05-24T12:14:14.420Z,17.13
2023-05-24T12:16:43.328Z,17.10
2023-05-24T12:19:31.881Z,16.94
2023-05-24T12:22:01.167Z,16.75
2023-05-24T12:24:28.658Z,16.82
2023-05-24T12:27:09.863Z,16.95
2023-05-24T12:29:38.976Z,17.14
2023-05-24T12:32:06.887Z,16.90
2023-05-24T12:34:33.848Z,17.00
2023-05-24T12:37:00.751Z,17.02
2023-05-24T12:39:32.501Z,16.99
2023-05-24T12:42:01.964Z,16.83
2023-05-24T12:44:34.756Z,16.98
2023-05-24T12:47:04.046Z,17.32
2023-05-24T12:49:32.121Z,16.99
2023-05-24T12:51:59.466Z,16.88
2023-05-24T12:54:27.903Z,16.96
2023-05-24T12:56:56.980Z,17.03
2023-05-24T12:59:25.840Z,17.27
2023-05-24T13:01:53.136Z,17.10
2023-05-24T13:04:21.951Z,17.34
2023-05-24T13:06:49.028Z,17.37
2023-05-24T13:09:18.282Z,17.21
2023-05-24T13:11:45.772Z,17.18
2023-05-24T13:14:13.029Z,17.33
2023-05-24T13:16:39.991Z,17.42
2023-05-24T13:19:06.857Z,17.29
2023-05-24T13:21:34.051Z,17.29
2023-05-24T13:24:01.038Z,17.23
2023-05-24T13:26:28.506Z,17.16
2023-05-24T13:31:26.181Z,16.75
2023-05-24T13:33:53.841Z,16.86
2023-05-24T13:36:20.692Z,16.76
2023-05-24T13:38:47.636Z,16.74
2023-05-24T13:41:14.462Z,16.95
2023-05-24T13:44:48.335Z,16.86
2023-05-24T13:47:31.220Z,16.90
2023-05-24T13:50:06.430Z,16.83
2023-05-24T13:52:33.274Z,16.73
2023-05-24T13:55:00.159Z,16.58
2023-05-24T13:57:39.428Z,16.58
2023-05-24T14:00:14.651Z,16.65
2023-05-24T14:02:41.981Z,16.68
2023-05-24T14:05:25.953Z,16.80
2023-05-24T14:07:54.866Z,16.87
2023-05-24T14:10:22.046Z,16.92
2023-05-24T14:12:59.448Z,17.00
2023-05-24T14:15:31.029Z,17.02
2023-05-24T14:17:59.077Z,17.07
2023-05-24T14:20:26.021Z,16.96
2023-05-24T14:22:52.864Z,17.08
2023-05-24T14:25:19.691Z,17.16
2023-05-24T14:27:47.055Z,17.20
2023-05-24T14:30:14.858Z,17.24
2023-05-24T14:32:41.863Z,17.12
2023-05-24T14:35:08.940Z,17.10
2023-05-24T14:37:35.911Z,17.15
2023-05-24T14:40:02.860Z,17.21
2023-05-24T14:42:29.883Z,17.22
2023-05-24T14:44:56.854Z,17.21
2023-05-24T14:47:23.637Z,17.12
2023-05-24T14:49:50.500Z,17.03
2023-05-24T14:52:17.324Z,17.04
2023-05-24T14:54:44.084Z,16.99
2023-05-24T14:57:11.118Z,17.14
2023-05-24T14:59:37.921Z,16.98
2023-05-24T15:02:04.895Z,17.04
2023-05-24T15:04:32.943Z,16.98
2023-05-24T15:06:59.804Z,16.94
2023-05-24T15:09:26.735Z,16.98
2023-05-24T15:11:53.571Z,17.12
2023-05-24T15:14:20.435Z,16.93
2023-05-24T15:16:48.696Z,16.94
2023-05-24T15:19:15.858Z,17.00
2023-05-24T15:21:42.646Z,17.07
2023-05-24T15:24:09.443Z,17.06
2023-05-24T15:26:36.265Z,17.05
2023-05-24T15:29:06.854Z,17.10
2023-05-24T15:31:33.937Z,17.15
2023-05-24T15:34:01.100Z,17.15
2023-05-24T15:36:27.844Z,17.02
2023-05-24T15:38:54.652Z,17.21
2023-05-24T15:41:21.456Z,17.13
2023-05-24T15:43:51.582Z,17.16
2023-05-24T15:46:21.736Z,17.00
2023-05-24T15:48:48.727Z,17.07
2023-05-24T15:53:45.801Z,17.12
2023-05-24T15:56:12.748Z,17.12
2023-05-24T15:58:40.281Z,17.09
2023-05-24T16:01:07.081Z,17.15
2023-05-24T16:03:34.037Z,17.18
2023-05-24T16:06:00.957Z,17.05
2023-05-24T16:08:28.708Z,17.10
2023-05-24T16:10:55.751Z,17.08
2023-05-24T16:13:22.700Z,17.10
2023-05-24T16:15:52.386Z,17.14
2023-05-24T16:18:22.764Z,17.13
2023-05-24T16:20:51.364Z,17.15
2023-05-24T16:23:19.501Z,17.18
2023-05-24T16:25:46.611Z,17.23
2023-05-24T16:28:13.492Z,16.94
2023-05-24T16:30:40.429Z,16.95
2023-05-24T16:33:07.502Z,17.01
2023-05-24T16:35:34.607Z,17.04
2023-05-24T16:38:01.451Z,17.01
2023-05-24T16:40:28.698Z,16.85
2023-05-24T16:42:55.820Z,16.89
2023-05-24T16:45:22.681Z,16.59
2023-05-24T16:47:49.722Z,16.66
2023-05-24T16:50:16.670Z,16.74
2023-05-24T16:52:44.455Z,16.95
2023-05-24T16:55:12.018Z,16.86
2023-05-24T16:57:39.118Z,16.74
2023-05-24T17:00:06.682Z,16.66
2023-05-24T17:02:34.864Z,16.72
2023-05-24T17:05:01.813Z,16.83
2023-05-24T17:07:28.651Z,16.82
2023-05-24T17:09:55.454Z,16.87
2023-05-24T17:12:22.237Z,16.73
2023-05-24T17:14:49.369Z,16.65
2023-05-24T17:17:16.649Z,16.65
2023-05-24T17:19:43.652Z,16.52
2023-05-24T17:22:11.304Z,16.75
2023-05-24T17:24:38.248Z,16.65
2023-05-24T17:27:05.292Z,16.66
2023-05-24T17:29:35.358Z,16.72
2023-05-24T17:32:05.483Z,16.70
2023-05-24T17:34:32.422Z,16.72
2023-05-24T17:36:59.204Z,16.47
2023-05-24T17:39:26.589Z,16.38
2023-05-24T17:41:53.485Z,16.42
2023-05-24T17:44:20.286Z,16.47
2023-05-24T17:46:47.173Z,16.48
2023-05-24T17:49:14.391Z,16.39
2023-05-24T17:51:41.259Z,16.40
2023-05-24T17:54:08.080Z,16.37
2023-05-24T17:56:34.939Z,16.47
2023-05-24T17:59:01.891Z,16.43
2023-05-24T18:01:29.454Z,16.48
2023-05-24T18:03:56.518Z,16.49
2023-05-24T18:06:23.432Z,16.48
2023-05-24T18:08:50.414Z,16.47
2023-05-24T18:11:17.225Z,16.33
